Time;durP1;ratioP1;P1;durP2;ratioP2;P2;SDS_P1;SDS_P2;PMS_P1;PMS_P2;Temp;Humidity;BMP_temperature;BMP_pressure;BME280_temperature;BME280_humidity;BME280_pressure;Samples;Min_cycle;Max_cycle;Signal;HPM_P1;HPM_P2
2023/10/17 00:01:18;;;;;;;3.30;0.65;;;4.90;99.90;;;;;;5049742;28;20025;-75
2023/10/17 00:03:45;;;;;;;2.83;0.60;;;4.90;99.90;;;;;;5048422;28;20059;-74
2023/10/17 00:06:13;;;;;;;10.45;3.70;;;4.80;99.90;;;;;;5049657;28;20027;-75
2023/10/17 00:08:40;;;;;;;16.10;5.53;;;4.80;99.90;;;;;;5049630;28;20078;-75
2023/10/17 00:11:11;;;;;;;13.05;4.47;;;4.70;99.90;;;;;;5049584;28;20029;-75
2023/10/17 00:13:45;;;;;;;7.97;2.05;;;4.70;99.90;;;;;;5048175;28;20505;-75
2023/10/17 00:16:14;;;;;;;3.42;1.13;;;4.70;99.90;;;;;;5049583;28;20116;-74
2023/10/17 00:18:40;;;;;;;3.72;0.80;;;4.80;99.90;;;;;;5047993;28;20395;-75
2023/10/17 00:21:26;;;;;;;;;;;4.70;99.90;;;;;;5049826;28;20032;-75
2023/10/17 00:23:52;;;;;;;4.53;0.90;;;4.70;99.90;;;;;;5048347;28;20339;-75
2023/10/17 00:26:18;;;;;;;;;;;4.70;99.90;;;;;;5048407;28;20025;-75
2023/10/17 00:28:49;;;;;;;8.00;0.75;;;4.60;99.90;;;;;;5047959;28;19909;-75
2023/10/17 00:31:16;;;;;;;2.20;0.57;;;4.60;99.90;;;;;;5049054;28;20404;-74
2023/10/17 00:33:41;;;;;;;2.78;0.82;;;4.70;99.90;;;;;;5049218;28;20545;-75
2023/10/17 00:36:14;;;;;;;;;;;4.60;99.90;;;;;;5048420;28;20111;-75
2023/10/17 00:38:43;;;;;;;4.03;0.98;;;4.60;99.90;;;;;;5049209;28;19905;-75
2023/10/17 00:41:10;;;;;;;4.47;0.88;;;4.60;99.90;;;;;;5047943;28;20398;-75
2023/10/17 00:43:37;;;;;;;5.78;1.98;;;4.60;99.90;;;;;;5049193;28;20032;-75
2023/10/17 00:46:07;;;;;;;7.88;2.65;;;4.60;99.90;;;;;;5047882;28;20032;-75
2023/10/17 00:48:34;;;;;;;7.43;2.10;;;4.50;99.90;;;;;;5047746;28;20060;-74
2023/10/17 00:51:09;;;;;;;10.68;3.30;;;4.50;99.90;;;;;;5049064;28;20033;-75
2023/10/17 00:53:40;;;;;;;8.63;3.95;;;4.50;99.90;;;;;;5049081;28;20035;-75
2023/10/17 00:56:07;;;;;;;10.15;5.43;;;4.40;99.90;;;;;;5047862;28;20071;-75
2023/10/17 00:58:34;;;;;;;10.95;5.10;;;4.40;99.90;;;;;;5047635;28;20027;-75
2023/10/17 01:01:09;;;;;;;9.85;3.83;;;4.50;99.90;;;;;;5049036;28;20094;-74
2023/10/17 01:03:44;;;;;;;8.02;2.72;;;4.40;99.90;;;;;;5048879;28;20779;-75
2023/10/17 01:06:36;;;;;;;6.90;2.50;;;4.40;99.90;;;;;;5049643;28;20048;-75
2023/10/17 01:09:17;;;;;;;6.72;1.83;;;4.40;99.90;;;;;;5051731;28;20029;-75
2023/10/17 01:11:45;;;;;;;6.88;1.83;;;4.30;99.90;;;;;;5051668;28;20515;-75
2023/10/17 01:14:18;;;;;;;4.20;1.10;;;4.30;99.90;;;;;;5053126;28;20063;-75
2023/10/17 01:16:45;;;;;;;10.25;2.92;;;4.20;99.90;;;;;;5053201;28;20028;-75
2023/10/17 01:19:11;;;;;;;7.40;2.75;;;4.20;99.90;;;;;;5052906;28;20119;-74
2023/10/17 01:21:37;;;;;;;;;;;4.30;99.90;;;;;;5053073;28;20103;-75
2023/10/17 01:24:03;;;;;;;5.68;2.08;;;4.20;99.90;;;;;;5052937;28;20007;-75
2023/10/17 01:26:29;;;;;;;4.40;1.40;;;4.00;99.90;;;;;;5051494;28;20116;-75
2023/10/17 01:28:54;;;;;;;;;;;4.00;99.90;;;;;;5052065;28;20111;-75
2023/10/17 01:31:23;;;;;;;4.55;1.17;;;4.00;99.90;;;;;;5052772;28;19924;-75
2023/10/17 01:33:54;;;;;;;5.88;1.63;;;4.10;99.90;;;;;;5051518;28;20032;-75
2023/10/17 01:36:21;;;;;;;4.93;1.35;;;4.10;99.90;;;;;;5052883;28;20025;-76
2023/10/17 01:38:49;;;;;;;4.95;1.58;;;4.10;99.90;;;;;;5052838;28;20109;-75
2023/10/17 01:41:19;;;;;;;6.45;2.10;;;4.00;99.90;;;;;;5051626;28;20036;-75
2023/10/17 01:43:45;;;;;;;10.75;1.88;;;4.10;99.90;;;;;;5051464;28;20031;-74
2023/10/17 01:46:21;;;;;;;4.07;0.95;;;4.10;99.90;;;;;;5051783;28;20036;-75
2023/10/17 01:48:48;;;;;;;4.63;1.10;;;4.20;99.90;;;;;;5051809;28;20029;-75
2023/10/17 01:51:15;;;;;;;5.53;1.20;;;4.10;99.90;;;;;;5052879;28;20386;-75
2023/10/17 01:53:42;;;;;;;4.55;1.08;;;4.10;99.90;;;;;;5053279;28;20021;-75
2023/10/17 01:56:15;;;;;;;4.47;1.42;;;4.10;99.90;;;;;;5054086;28;20070;-75
2023/10/17 01:58:51;;;;;;;3.90;0.85;;;4.10;99.90;;;;;;5054367;28;20021;-76
2023/10/17 02:01:31;;;;;;;4.45;1.15;;;4.20;99.90;;;;;;5051861;28;20040;-75
2023/10/17 02:04:04;;;;;;;4.63;0.82;;;4.30;99.90;;;;;;5051991;28;20024;-75
2023/10/17 02:06:32;;;;;;;2.63;0.88;;;4.20;99.90;;;;;;5050609;28;20025;-75
2023/10/17 02:08:59;;;;;;;4.13;0.70;;;4.10;99.90;;;;;;5051724;28;20111;-75
2023/10/17 02:11:28;;;;;;;4.43;0.90;;;4.00;99.90;;;;;;5050246;28;20195;-74
2023/10/17 02:13:56;;;;;;;2.35;0.68;;;3.90;99.90;;;;;;5051726;28;20040;-75
2023/10/17 02:16:29;;;;;;;5.40;1.42;;;3.80;99.90;;;;;;5051622;28;20397;-74
2023/10/17 02:18:58;;;;;;;5.10;1.40;;;3.90;99.90;;;;;;5050228;28;20045;-75
2023/10/17 02:21:27;;;;;;;5.30;1.30;;;3.90;99.90;;;;;;5051526;28;20049;-75
2023/10/17 02:23:53;;;;;;;6.93;1.95;;;3.90;99.90;;;;;;5051395;28;20463;-75
2023/10/17 02:26:25;;;;;;;4.95;1.67;;;3.80;99.90;;;;;;5051313;28;20033;-74
2023/10/17 02:29:05;;;;;;;5.50;1.13;;;3.80;99.90;;;;;;5051477;28;20025;-75
2023/10/17 02:31:32;;;;;;;4.00;1.60;;;3.70;99.90;;;;;;5050063;28;20036;-75
2023/10/17 02:33:58;;;;;;;7.05;1.30;;;3.70;99.90;;;;;;5051805;28;20103;-74
2023/10/17 02:36:24;;;;;;;6.28;1.38;;;3.80;99.90;;;;;;5051237;28;20033;-75
2023/10/17 02:38:50;;;;;;;4.35;1.60;;;3.80;99.90;;;;;;5049971;28;20075;-75
2023/10/17 02:41:19;;;;;;;;;;;3.80;99.90;;;;;;5051701;28;20108;-74
2023/10/17 02:43:46;;;;;;;5.57;1.70;;;3.80;99.90;;;;;;5051111;28;19905;-75
2023/10/17 02:46:14;;;;;;;6.07;2.00;;;3.90;99.90;;;;;;5049807;28;20037;-74
2023/10/17 02:48:40;;;;;;;8.82;2.42;;;3.90;99.90;;;;;;5051143;28;20044;-75
2023/10/17 02:53:56;;;;;;;7.43;2.15;;;3.90;99.90;;;;;;5051036;28;20021;-75
2023/10/17 02:56:23;;;;;;;5.43;2.10;;;3.80;99.90;;;;;;5050996;28;20112;-75
2023/10/17 02:58:50;;;;;;;13.00;4.47;;;3.80;99.90;;;;;;5050868;28;20053;-74
2023/10/17 03:01:16;;;;;;;13.07;5.07;;;3.80;99.90;;;;;;5050668;28;20054;-75
2023/10/17 03:03:42;;;;;;;6.15;2.40;;;4.00;99.90;;;;;;5049605;28;20028;-75
2023/10/17 03:06:15;;;;;;;;;;;4.00;99.90;;;;;;5049863;28;20037;-75
2023/10/17 03:08:42;;;;;;;5.60;1.20;;;4.00;99.90;;;;;;5049454;28;20409;-74
2023/10/17 03:11:08;;;;;;;3.13;0.85;;;4.00;99.90;;;;;;5049161;28;20040;-75
2023/10/17 03:13:40;;;;;;;;;;;4.00;99.90;;;;;;5050976;28;20033;-75
2023/10/17 03:16:28;;;;;;;6.68;0.98;;;4.00;99.90;;;;;;5049519;28;19947;-75
2023/10/17 03:18:57;;;;;;;11.73;3.03;;;3.90;99.90;;;;;;5050385;28;20135;-75
2023/10/17 03:21:33;;;;;;;11.82;5.78;;;4.00;99.90;;;;;;5050561;28;20035;-75
2023/10/17 03:24:00;;;;;;;19.77;11.20;;;4.00;99.90;;;;;;5049383;28;20371;-75
2023/10/17 03:26:29;;;;;;;21.05;12.20;;;4.00;99.90;;;;;;5050382;28;20068;-75
2023/10/17 03:28:55;;;;;;;23.65;11.23;;;4.00;99.90;;;;;;5048849;28;20036;-75
2023/10/17 03:31:20;;;;;;;;;;;4.00;99.90;;;;;;5050927;28;20036;-75
2023/10/17 03:33:53;;;;;;;14.88;5.63;;;4.00;99.90;;;;;;5050306;28;19905;-75
2023/10/17 03:39:18;;;;;;;6.22;2.45;;;4.00;99.90;;;;;;5050749;28;20047;-76
2023/10/17 03:41:45;;;;;;;9.50;2.53;;;4.00;99.90;;;;;;5050397;28;20029;-75
2023/10/17 03:44:15;;;;;;;6.40;1.80;;;4.00;99.90;;;;;;5048961;28;20043;-75
2023/10/17 03:46:46;;;;;;;9.48;3.00;;;3.90;99.90;;;;;;5049065;28;20040;-75
2023/10/17 03:49:18;;;;;;;8.73;3.10;;;3.90;99.90;;;;;;5050271;28;20515;-75
2023/10/17 03:51:47;;;;;;;7.97;2.80;;;3.90;99.90;;;;;;5050584;28;20048;-75
2023/10/17 03:54:18;;;;;;;13.07;4.15;;;3.80;99.90;;;;;;5049301;28;20494;-75
2023/10/17 03:56:49;;;;;;;5.35;1.75;;;4.00;99.90;;;;;;5049347;28;20025;-75
2023/10/17 04:01:48;;;;;;;;;;;4.00;99.90;;;;;;5050891;28;20115;-75
2023/10/17 04:04:18;;;;;;;7.57;1.77;;;4.00;99.90;;;;;;5050046;28;19909;-75
2023/10/17 04:06:48;;;;;;;8.00;1.67;;;4.00;99.90;;;;;;5050875;28;20373;-76
2023/10/17 04:11:48;;;;;;;11.40;3.22;;;4.10;99.90;;;;;;5050153;28;20076;-75
2023/10/17 04:14:17;;;;;;;11.65;4.20;;;4.10;99.90;;;;;;5049679;28;20052;-75
2023/10/17 04:16:44;;;;;;;15.05;4.72;;;4.10;99.90;;;;;;5049561;28;20037;-75
2023/10/17 04:19:20;;;;;;;21.05;6.32;;;4.10;99.90;;;;;;5049331;28;20048;-75
2023/10/17 04:24:34;;;;;;;25.38;6.65;;;4.10;99.90;;;;;;5049564;28;20077;-74
2023/10/17 04:29:38;;;;;;;19.95;5.70;;;4.20;99.90;;;;;;5049509;28;20083;-75
2023/10/17 04:32:13;;;;;;;13.90;5.10;;;4.10;99.90;;;;;;5049249;28;20040;-75
2023/10/17 04:34:45;;;;;;;12.43;4.85;;;4.20;99.90;;;;;;5049394;28;20075;-74
2023/10/17 04:37:16;;;;;;;14.88;4.97;;;4.20;99.90;;;;;;5047857;28;20028;-75
2023/10/17 04:39:50;;;;;;;12.43;5.30;;;4.10;99.90;;;;;;5047956;28;20379;-75
2023/10/17 04:42:34;;;;;;;12.93;5.43;;;4.20;99.90;;;;;;5048543;28;20013;-75
2023/10/17 04:45:06;;;;;;;14.15;5.63;;;4.10;99.90;;;;;;5049300;28;20502;-75
2023/10/17 04:47:39;;;;;;;13.23;5.07;;;4.30;99.90;;;;;;5049159;28;20033;-74
2023/10/17 04:50:11;;;;;;;;;;;4.20;99.90;;;;;;5048342;28;20044;-77
2023/10/17 04:52:44;;;;;;;13.63;5.05;;;4.10;99.90;;;;;;5048028;28;20070;-75
2023/10/17 04:55:22;;;;;;;18.40;7.05;;;4.20;99.90;;;;;;5042602;28;20032;-75
2023/10/17 04:57:57;;;;;;;16.98;7.93;;;4.10;99.90;;;;;;5028464;28;20120;-75
2023/10/17 05:00:43;;;;;;;22.58;9.38;;;4.10;99.90;;;;;;5047125;28;20021;-75
2023/10/17 05:06:45;;;;;;;24.17;10.40;;;4.10;99.90;;;;;;5049122;28;20029;-76
2023/10/17 06:17:24;;;;;;;3.63;1.95;;;5.50;99.90;;;;;;5055488;28;20044;-76
2023/10/17 06:19:50;;;;;;;4.78;2.25;;;5.70;99.90;;;;;;5055784;28;20524;-76
2023/10/17 06:26:04;;;;;;;6.45;2.85;;;5.80;99.90;;;;;;5052595;28;19904;-75
2023/10/17 06:28:20;;;;;;;5.47;2.35;;;5.80;99.90;;;;;;5052129;28;20037;-75
2023/10/17 06:30:47;;;;;;;4.75;2.05;;;5.90;99.90;;;;;;5051981;28;20029;-76
2023/10/17 06:33:19;;;;;;;8.93;2.05;;;6.10;99.90;;;;;;5052034;28;20116;-76
2023/10/17 06:35:55;;;;;;;3.53;2.00;;;6.30;99.90;;;;;;5052089;28;20036;-75
2023/10/17 06:38:27;;;;;;;5.95;2.10;;;6.40;99.90;;;;;;5051682;28;20028;-75
2023/10/17 06:41:11;;;;;;;7.43;2.83;;;6.50;99.90;;;;;;5050026;28;20037;-75
2023/10/17 06:43:38;;;;;;;12.10;5.65;;;6.60;99.90;;;;;;5051138;28;20052;-75
2023/10/17 06:46:13;;;;;;;10.50;4.47;;;6.80;99.90;;;;;;5049911;28;20036;-74
2023/10/17 06:48:48;;;;;;;12.82;5.45;;;7.00;99.90;;;;;;5051366;28;20079;-73
2023/10/17 06:51:36;;;;;;;19.47;11.00;;;7.00;99.90;;;;;;5049909;28;20448;-73
2023/10/17 06:54:06;;;;;;;32.78;16.88;;;7.20;99.90;;;;;;5051121;28;20502;-73
2023/10/17 06:56:38;;;;;;;55.97;28.73;;;7.30;99.90;;;;;;5051346;28;20025;-75
2023/10/17 06:59:05;;;;;;;57.10;28.70;;;7.40;99.90;;;;;;5050010;28;20033;-74
2023/10/17 07:01:33;;;;;;;60.65;30.52;;;7.50;99.90;;;;;;5050904;28;20021;-75
2023/10/17 07:04:01;;;;;;;58.83;30.50;;;7.50;99.90;;;;;;5048835;28;20480;-75
2023/10/17 07:06:29;;;;;;;54.92;28.83;;;7.60;99.90;;;;;;5049734;28;20035;-75
2023/10/17 07:08:54;;;;;;;46.67;22.98;;;7.70;99.90;;;;;;5049549;28;20056;-75
2023/10/17 07:14:40;;;;;;;12.35;5.03;;;8.00;99.90;;;;;;5051113;28;19915;-74
2023/10/17 07:16:48;;;;;;;8.15;4.05;;;8.10;99.90;;;;;;5052506;28;20379;-74
2023/10/17 07:24:33;;;;;;;5.63;1.83;;;8.40;99.90;;;;;;5051044;28;20406;-75
2023/10/17 07:27:01;;;;;;;4.53;1.83;;;8.60;99.90;;;;;;5050624;28;20112;-74
2023/10/17 07:29:30;;;;;;;23.33;6.53;;;8.60;99.90;;;;;;5049217;28;20124;-74
2023/10/17 07:32:01;;;;;;;7.80;2.53;;;8.60;99.90;;;;;;5050442;28;20033;-74
2023/10/17 07:34:33;;;;;;;7.00;2.10;;;8.60;99.90;;;;;;5050380;28;20031;-75
2023/10/17 07:37:12;;;;;;;4.20;2.17;;;8.70;99.90;;;;;;5050439;28;20021;-74
2023/10/17 07:39:38;;;;;;;5.25;2.45;;;8.80;99.90;;;;;;5049263;28;20032;-75
2023/10/17 07:42:04;;;;;;;;;;;9.00;99.90;;;;;;5050553;28;20394;-75
2023/10/17 07:44:34;;;;;;;16.63;9.75;;;9.30;99.90;;;;;;5050300;28;19920;-75
2023/10/17 07:49:29;;;;;;;7.28;2.45;;;9.60;99.90;;;;;;5050583;28;20087;-77
2023/10/17 07:51:58;;;;;;;;;;;9.80;99.90;;;;;;5050052;28;20908;-77
2023/10/17 07:54:28;;;;;;;6.68;2.25;;;9.80;99.90;;;;;;5049081;28;19909;-77
2023/10/17 07:56:55;;;;;;;7.68;2.20;;;9.90;99.90;;;;;;5050695;28;20021;-77
2023/10/17 07:59:30;;;;;;;4.82;2.08;;;9.90;99.90;;;;;;5050151;28;20067;-76
2023/10/17 08:02:00;;;;;;;6.33;2.33;;;10.00;99.90;;;;;;5050768;28;20021;-77
2023/10/17 08:04:36;;;;;;;7.55;2.08;;;10.10;99.90;;;;;;5050674;28;20024;-77
2023/10/17 08:07:03;;;;;;;7.43;1.92;;;10.10;99.90;;;;;;5048778;28;20021;-75
2023/10/17 08:09:36;;;;;;;5.45;1.80;;;10.20;99.90;;;;;;5048959;28;20114;-77
2023/10/17 08:12:05;;;;;;;5.25;2.00;;;10.50;99.90;;;;;;5050111;28;20041;-77
2023/10/17 08:15:19;;;;;;;5.95;1.50;;;10.60;98.40;;;;;;5050398;28;20017;-76
2023/10/17 08:17:20;;;;;;;5.22;1.75;;;10.70;98.20;;;;;;5051129;28;20433;-78
2023/10/17 08:20:00;;;;;;;;;;;10.90;97.50;;;;;;5050244;28;20485;-77
2023/10/17 08:22:27;;;;;;;7.38;1.70;;;11.00;97.20;;;;;;5048583;28;19904;-77
2023/10/17 08:24:53;;;;;;;10.27;2.42;;;11.40;94.90;;;;;;5048278;28;20035;-77
2023/10/17 08:29:49;;;;;;;5.35;1.45;;;11.50;92.70;;;;;;5049727;28;20025;-73
2023/10/17 08:35:03;;;;;;;2.85;1.50;;;12.20;90.50;;;;;;5049628;28;20025;-77
2023/10/17 08:37:40;;;;;;;4.15;1.40;;;12.40;85.60;;;;;;5049227;28;20116;-75
2023/10/17 08:42:51;;;;;;;12.50;2.03;;;13.30;76.30;;;;;;5049461;28;20048;-76
2023/10/17 08:45:17;;;;;;;;;;;13.80;74.80;;;;;;5049318;28;20021;-76
2023/10/17 08:47:43;;;;;;;4.18;1.00;;;14.00;73.00;;;;;;5047870;28;19940;-74
2023/10/17 08:50:09;;;;;;;3.63;1.10;;;14.50;70.00;;;;;;5048824;28;20039;-75
2023/10/17 08:52:39;;;;;;;7.45;1.33;;;14.70;67.90;;;;;;5048930;28;20025;-74
2023/10/17 08:55:05;;;;;;;4.90;1.33;;;15.20;67.40;;;;;;5047317;28;20029;-75
2023/10/17 08:57:31;;;;;;;5.85;1.40;;;15.90;64.30;;;;;;5047606;28;20025;-74
2023/10/17 09:02:35;;;;;;;4.45;1.60;;;16.40;61.90;;;;;;5048981;28;20366;-76
2023/10/17 09:05:14;;;;;;;5.80;2.10;;;16.70;60.20;;;;;;5048814;28;20074;-75
2023/10/17 09:07:43;;;;;;;7.30;1.65;;;17.00;57.80;;;;;;5048685;28;20041;-74
2023/10/17 09:10:38;;;;;;;3.83;1.30;;;17.40;56.40;;;;;;5047341;28;20195;-75
2023/10/17 09:15:55;;;;;;;6.55;1.33;;;17.50;54.20;;;;;;5048844;28;20017;-74
2023/10/17 09:18:40;;;;;;;5.63;2.03;;;17.40;54.60;;;;;;5047217;28;20077;-75
2023/10/17 09:21:06;;;;;;;6.75;1.60;;;17.60;54.10;;;;;;5048488;28;20033;-75
2023/10/17 09:23:34;;;;;;;4.35;1.52;;;17.50;52.70;;;;;;5047373;28;20048;-77
2023/10/17 09:26:07;;;;;;;6.40;1.60;;;17.20;53.90;;;;;;5047272;28;20032;-75
2023/10/17 09:28:33;;;;;;;9.10;1.77;;;17.10;54.20;;;;;;5051278;28;20037;-75
2023/10/17 09:31:06;;;;;;;5.70;1.73;;;16.70;53.50;;;;;;5052451;28;20093;-76
2023/10/17 09:33:32;;;;;;;7.20;1.45;;;16.00;55.70;;;;;;5052405;28;20057;-75
2023/10/17 09:35:59;;;;;;;4.68;1.75;;;15.40;57.20;;;;;;5052509;28;20029;-76
2023/10/17 09:38:29;;;;;;;12.13;2.70;;;14.60;58.60;;;;;;5050813;28;20490;-74
2023/10/17 09:41:05;;;;;;;6.82;1.52;;;14.20;60.00;;;;;;5052364;28;20021;-76
2023/10/17 09:43:31;;;;;;;10.65;1.65;;;13.90;61.50;;;;;;5052403;28;20074;-77
2023/10/17 09:46:09;;;;;;;5.50;2.00;;;13.70;62.50;;;;;;5052250;28;20033;-74
2023/10/17 09:48:41;;;;;;;4.13;1.40;;;13.60;63.20;;;;;;5052056;28;20029;-74
2023/10/17 09:51:13;;;;;;;11.32;3.25;;;13.50;62.60;;;;;;5052198;28;20029;-76
2023/10/17 09:53:41;;;;;;;8.05;3.03;;;13.40;63.90;;;;;;5051855;28;20031;-74
2023/10/17 09:56:19;;;;;;;5.70;1.90;;;13.20;64.20;;;;;;5050525;28;20037;-73
2023/10/17 09:58:50;;;;;;;6.47;1.58;;;13.20;66.20;;;;;;5052049;28;20025;-76
2023/10/17 10:01:25;;;;;;;5.70;1.70;;;13.30;65.70;;;;;;5050459;28;20036;-75
2023/10/17 10:04:01;;;;;;;5.80;1.35;;;13.20;65.00;;;;;;5051935;28;20428;-74
2023/10/17 10:06:32;;;;;;;2.60;1.20;;;13.20;66.10;;;;;;5051860;28;20119;-75
2023/10/17 10:09:13;;;;;;;13.93;1.88;;;13.20;66.60;;;;;;5050463;28;20036;-75
2023/10/17 10:11:58;;;;;;;6.10;1.50;;;13.10;67.70;;;;;;5051743;28;20033;-74
2023/10/17 10:14:26;;;;;;;6.07;1.92;;;13.00;66.60;;;;;;5050401;28;20520;-74
2023/10/17 10:17:03;;;;;;;7.50;2.35;;;12.90;68.00;;;;;;5051392;28;20059;-75
2023/10/17 10:19:41;;;;;;;;;;;12.80;67.90;;;;;;5052018;28;20036;-74
2023/10/17 10:22:29;;;;;;;9.00;2.83;;;12.70;68.70;;;;;;5050364;28;20380;-74
2023/10/17 10:25:07;;;;;;;7.03;1.52;;;12.80;66.60;;;;;;5048044;28;20025;-74
2023/10/17 10:27:33;;;;;;;11.48;2.63;;;12.70;63.80;;;;;;5050118;28;20032;-75
2023/10/17 10:30:31;;;;;;;5.57;1.70;;;12.50;67.10;;;;;;5051407;28;20108;-75
2023/10/17 10:32:59;;;;;;;7.60;1.60;;;12.60;69.20;;;;;;5051610;28;20517;-75
2023/10/17 10:35:43;;;;;;;5.75;1.48;;;12.70;66.90;;;;;;5051190;28;20029;-74
2023/10/17 10:38:09;;;;;;;3.60;1.27;;;12.60;67.90;;;;;;5043737;28;20037;-73
2023/10/17 10:40:37;;;;;;;;;;;12.60;67.50;;;;;;5034604;28;20030;-74
2023/10/17 10:43:04;;;;;;;7.82;2.80;;;12.60;68.00;;;;;;5031396;28;19913;-75
2023/10/17 10:45:35;;;;;;;4.18;1.77;;;12.70;69.20;;;;;;5029914;28;20544;-75
2023/10/17 10:48:15;;;;;;;7.45;2.65;;;12.80;68.90;;;;;;5030901;28;20029;-74
2023/10/17 10:50:46;;;;;;;7.53;3.20;;;12.60;69.90;;;;;;5030840;28;20701;-74
2023/10/17 10:53:29;;;;;;;12.02;2.08;;;12.60;70.60;;;;;;5031182;28;20041;-75
2023/10/17 10:56:03;;;;;;;5.05;1.95;;;12.50;71.30;;;;;;5030880;28;20064;-75
2023/10/17 10:58:33;;;;;;;5.85;1.58;;;12.70;70.70;;;;;;5029183;28;20037;-75
2023/10/17 11:01:07;;;;;;;8.27;1.77;;;12.60;69.50;;;;;;5029519;28;20026;-75
2023/10/17 11:03:42;;;;;;;4.70;1.27;;;12.60;68.60;;;;;;5030929;28;20037;-74
2023/10/17 11:06:08;;;;;;;5.88;1.52;;;12.50;69.40;;;;;;5030815;28;20641;-75
2023/10/17 11:08:37;;;;;;;;;;;12.50;68.10;;;;;;5031210;28;20040;-75
2023/10/17 11:11:04;;;;;;;5.05;1.25;;;12.60;67.80;;;;;;5029371;28;19917;-74
2023/10/17 11:13:50;;;;;;;5.22;1.67;;;12.60;66.10;;;;;;5030790;28;20026;-74
2023/10/17 11:16:21;;;;;;;5.60;1.48;;;12.40;66.70;;;;;;5032772;28;20029;-75
2023/10/17 11:18:48;;;;;;;5.47;1.88;;;12.40;67.30;;;;;;5033790;28;20158;-75
2023/10/17 11:21:19;;;;;;;4.80;1.35;;;12.50;66.40;;;;;;5038170;28;20029;-76
2023/10/17 11:23:50;;;;;;;5.72;2.05;;;12.40;66.80;;;;;;5043970;28;20033;-76
2023/10/17 11:26:22;;;;;;;5.68;1.52;;;12.20;67.70;;;;;;5041873;28;20510;-74
2023/10/17 11:28:51;;;;;;;4.95;1.42;;;12.30;68.20;;;;;;5038906;28;20056;-75
2023/10/17 11:31:24;;;;;;;9.38;1.73;;;12.60;67.60;;;;;;5050139;28;20132;-74
2023/10/17 11:34:16;;;;;;;7.03;2.22;;;12.70;68.60;;;;;;5048824;28;20119;-75
2023/10/17 11:36:45;;;;;;;8.15;2.55;;;12.90;64.30;;;;;;5049700;28;20045;-74
2023/10/17 11:39:15;;;;;;;5.88;2.03;;;13.00;63.80;;;;;;5033051;28;20045;-74
2023/10/17 11:41:54;;;;;;;14.10;2.00;;;13.10;64.60;;;;;;5028860;28;20037;-74
2023/10/17 11:44:24;;;;;;;11.75;1.83;;;13.10;62.30;;;;;;5028854;28;20083;-74
2023/10/17 11:47:03;;;;;;;3.38;1.58;;;12.90;62.70;;;;;;5030229;28;20409;-75
2023/10/17 11:49:49;;;;;;;6.30;1.73;;;13.00;63.30;;;;;;5029086;28;20029;-75
2023/10/17 11:52:15;;;;;;;9.27;2.70;;;12.90;64.70;;;;;;5027888;28;20192;-76
2023/10/17 11:54:53;;;;;;;10.15;2.35;;;12.90;63.90;;;;;;5030091;28;20021;-75
2023/10/17 11:57:23;;;;;;;4.97;1.98;;;13.00;64.10;;;;;;5029258;28;20516;-75
2023/10/17 12:00:07;;;;;;;8.55;1.50;;;13.00;63.20;;;;;;5028670;28;20025;-75
2023/10/17 12:02:33;;;;;;;7.75;1.67;;;12.90;63.60;;;;;;5028424;28;20037;-75
2023/10/17 12:05:02;;;;;;;7.10;1.20;;;13.10;64.20;;;;;;5029797;28;20406;-76
2023/10/17 12:07:29;;;;;;;5.93;1.40;;;13.10;63.60;;;;;;5028338;28;20033;-75
2023/10/17 12:10:02;;;;;;;29.70;13.73;;;13.00;63.00;;;;;;5028362;28;20022;-75
2023/10/17 12:12:28;;;;;;;3.88;1.10;;;13.20;63.10;;;;;;5029568;28;20030;-75
2023/10/17 12:14:54;;;;;;;8.45;2.17;;;13.30;62.50;;;;;;5029406;28;20026;-74
2023/10/17 12:17:20;;;;;;;;;;;13.30;63.50;;;;;;5029560;28;20072;-74
2023/10/17 12:19:46;;;;;;;12.23;6.75;;;13.20;62.50;;;;;;5028162;28;19916;-75
2023/10/17 12:22:12;;;;;;;5.75;1.45;;;13.30;63.50;;;;;;5028097;28;20179;-75
2023/10/17 12:24:38;;;;;;;;;;;13.50;63.50;;;;;;5028574;28;20512;-75
2023/10/17 12:27:06;;;;;;;8.68;2.40;;;13.70;63.00;;;;;;5028009;28;19995;-74
2023/10/17 12:29:34;;;;;;;5.63;1.88;;;13.70;63.20;;;;;;5029280;28;20036;-74
2023/10/17 12:32:01;;;;;;;3.78;1.30;;;13.60;61.90;;;;;;5027921;28;20042;-75
2023/10/17 12:34:28;;;;;;;4.63;1.65;;;13.70;61.60;;;;;;5028104;28;20026;-74
2023/10/17 12:36:56;;;;;;;9.57;1.98;;;13.70;62.20;;;;;;5027877;28;20030;-74
2023/10/17 12:39:23;;;;;;;11.32;1.80;;;13.70;63.50;;;;;;5028455;28;20028;-75
2023/10/17 12:41:49;;;;;;;6.05;2.72;;;13.60;62.60;;;;;;5035608;28;20032;-74
2023/10/17 12:44:20;;;;;;;;;;;13.70;63.20;;;;;;5041182;28;20029;-75
2023/10/17 12:46:46;;;;;;;8.63;3.90;;;13.40;63.80;;;;;;5038158;28;19909;-76
2023/10/17 12:49:12;;;;;;;14.63;6.80;;;13.60;63.20;;;;;;5022756;28;20497;-75
2023/10/17 12:51:38;;;;;;;;;;;13.50;62.00;;;;;;5038805;28;20040;-75
2023/10/17 12:54:07;;;;;;;6.75;2.40;;;13.50;62.30;;;;;;5039429;28;19912;-76
2023/10/17 12:56:36;;;;;;;7.65;1.52;;;13.50;62.90;;;;;;5037509;28;20501;-75
2023/10/17 12:59:03;;;;;;;8.02;3.00;;;13.60;61.80;;;;;;5038255;28;20017;-75
2023/10/17 13:01:29;;;;;;;7.30;2.55;;;13.60;62.00;;;;;;5032834;28;20303;-76
2023/10/17 13:03:57;;;;;;;;;;;13.50;62.70;;;;;;5040839;28;20382;-75
2023/10/17 13:06:26;;;;;;;8.00;1.75;;;13.60;62.70;;;;;;5042938;28;19912;-75
2023/10/17 13:08:59;;;;;;;10.57;2.95;;;13.50;62.60;;;;;;5045810;28;20025;-75
2023/10/17 13:11:28;;;;;;;10.70;8.10;;;13.50;61.70;;;;;;5032583;28;20037;-76
2023/10/17 13:13:55;;;;;;;5.68;2.38;;;13.50;62.20;;;;;;5031456;28;20494;-76
2023/10/17 13:16:23;;;;;;;6.45;3.83;;;13.50;61.30;;;;;;5038773;28;20029;-74
2023/10/17 13:18:50;;;;;;;4.75;1.48;;;13.40;62.00;;;;;;5037818;28;20409;-76
2023/10/17 13:21:17;;;;;;;6.25;1.90;;;13.30;61.70;;;;;;5035254;28;20556;-76
2023/10/17 13:23:46;;;;;;;7.22;1.38;;;13.30;61.40;;;;;;5031407;28;20052;-75
2023/10/17 13:26:13;;;;;;;4.60;1.30;;;13.30;62.90;;;;;;5032648;28;20091;-76
2023/10/17 13:28:39;;;;;;;4.97;1.30;;;13.30;62.40;;;;;;5048033;28;20048;-75
2023/10/17 13:31:14;;;;;;;4.75;1.38;;;13.30;62.30;;;;;;5044167;28;20503;-75
2023/10/17 13:33:41;;;;;;;12.23;2.00;;;13.30;63.10;;;;;;5039321;28;20029;-76
2023/10/17 13:36:10;;;;;;;5.22;1.95;;;13.30;62.00;;;;;;5041030;28;20017;-74
2023/10/17 13:38:40;;;;;;;7.22;2.17;;;13.20;62.40;;;;;;5040443;28;20091;-76
2023/10/17 13:41:09;;;;;;;15.20;7.97;;;13.20;62.10;;;;;;5039271;28;20025;-77
2023/10/17 13:43:34;;;;;;;5.40;2.20;;;13.10;62.90;;;;;;5039924;28;20025;-76
2023/10/17 13:46:05;;;;;;;;;;;13.00;63.10;;;;;;5039502;28;20026;-76
2023/10/17 13:48:33;;;;;;;14.18;6.70;;;13.00;63.70;;;;;;5032185;28;19995;-77
2023/10/17 13:51:06;;;;;;;;;;;13.10;63.00;;;;;;5030738;28;20592;-75
2023/10/17 13:53:33;;;;;;;10.43;5.75;;;13.00;63.20;;;;;;5030601;28;19913;-76
2023/10/17 13:55:59;;;;;;;11.40;2.55;;;13.10;62.90;;;;;;5032070;28;20037;-76
2023/10/17 13:58:24;;;;;;;;;;;13.20;62.90;;;;;;5032555;28;20031;-75
2023/10/17 14:00:54;;;;;;;14.98;7.20;;;13.10;62.50;;;;;;5030635;28;19913;-76
2023/10/17 14:03:24;;;;;;;27.33;18.45;;;13.00;63.00;;;;;;5033368;28;20025;-76
2023/10/17 14:05:51;;;;;;;8.65;2.28;;;12.90;63.30;;;;;;5033781;28;20068;-75
2023/10/17 14:08:21;;;;;;;14.32;5.68;;;12.80;63.40;;;;;;5031691;28;20115;-75
2023/10/17 14:10:48;;;;;;;10.13;3.55;;;12.80;63.60;;;;;;5030579;28;20028;-76
2023/10/17 14:13:16;;;;;;;65.55;26.83;;;12.70;63.60;;;;;;5031512;28;20067;-75
2023/10/17 14:15:42;;;;;;;48.25;19.98;;;12.60;64.60;;;;;;5031627;28;20563;-76
2023/10/17 14:18:14;;;;;;;21.70;10.75;;;12.60;65.50;;;;;;5029795;28;20053;-76
2023/10/17 14:23:30;;;;;;;23.08;10.43;;;12.60;66.30;;;;;;5031917;28;20433;-75
2023/10/17 14:26:12;;;;;;;6.80;2.72;;;12.50;65.20;;;;;;5013330;28;20057;-76
2023/10/17 14:28:38;;;;;;;9.60;3.00;;;12.50;65.40;;;;;;5030439;28;20026;-76
2023/10/17 14:31:05;;;;;;;;;;;12.50;65.10;;;;;;5030816;28;20034;-75
2023/10/17 14:33:34;;;;;;;7.00;1.45;;;12.50;65.50;;;;;;5031506;28;19912;-76
2023/10/17 14:36:02;;;;;;;3.90;1.40;;;12.50;65.80;;;;;;5031428;28;20033;-76
2023/10/17 14:38:27;;;;;;;7.43;3.55;;;12.50;66.20;;;;;;5030070;28;20026;-76
2023/10/17 14:40:54;;;;;;;;;;;12.50;65.40;;;;;;5031775;28;20468;-75
2023/10/17 14:43:19;;;;;;;7.90;2.95;;;12.40;65.00;;;;;;5031899;28;20420;-76
2023/10/17 14:45:45;;;;;;;;;;;12.20;66.40;;;;;;5031549;28;20116;-76
2023/10/17 14:48:11;;;;;;;7.30;3.13;;;12.10;66.30;;;;;;5029753;28;19913;-75
2023/10/17 14:50:40;;;;;;;5.53;2.47;;;12.00;66.60;;;;;;5030970;28;20410;-76
2023/10/17 14:53:06;;;;;;;7.00;2.05;;;11.90;67.20;;;;;;5031041;28;20116;-76
2023/10/17 14:55:34;;;;;;;8.13;2.47;;;11.80;67.80;;;;;;5031140;28;20104;-76
2023/10/17 14:58:01;;;;;;;5.38;1.75;;;11.70;68.90;;;;;;5030000;28;20457;-76
2023/10/17 15:00:28;;;;;;;7.93;2.40;;;11.60;69.50;;;;;;5029794;28;20025;-76
2023/10/17 15:02:55;;;;;;;7.45;3.72;;;11.60;69.90;;;;;;5029329;28;20117;-75
2023/10/17 15:05:21;;;;;;;10.07;2.63;;;11.60;69.70;;;;;;5027784;28;20083;-76
2023/10/17 15:07:47;;;;;;;10.60;5.00;;;11.60;69.70;;;;;;5027947;28;20041;-76
2023/10/17 15:10:13;;;;;;;14.93;9.20;;;11.60;70.30;;;;;;5027790;28;20033;-75